sensor_id;sensor_type;location;lat;lon;timestamp;pressure;altitude;pressure_sealevel;temperature;humidity
48968;BME280;46511;53.148;8.204;2024-01-25T00:01:20;102268.44;;;9.95;100.00
48968;BME280;46511;53.148;8.204;2024-01-25T00:03:51;102275.16;;;10.07;100.00
48968;BME280;46511;53.148;8.204;2024-01-25T00:06:23;102276.13;;;10.02;100.00
48968;BME280;46511;53.148;8.204;2024-01-25T00:08:54;102263.84;;;9.70;100.00
48968;BME280;46511;53.148;8.204;2024-01-25T00:11:25;102275.75;;;9.56;100.00
48968;BME280;46511;53.148;8.204;2024-01-25T00:13:57;102275.06;;;9.80;100.00
48968;BME280;46511;53.148;8.204;2024-01-25T00:16:24;102285.34;;;9.61;100.00
48968;BME280;46511;53.148;8.204;2024-01-25T00:18:55;102281.00;;;9.59;100.00
48968;BME280;46511;53.148;8.204;2024-01-25T00:21:27;102284.84;;;9.49;100.00
48968;BME280;46511;53.148;8.204;2024-01-25T00:23:58;102284.16;;;9.08;100.00
48968;BME280;46511;53.148;8.204;2024-01-25T00:26:29;102289.56;;;9.05;100.00
48968;BME280;46511;53.148;8.204;2024-01-25T00:29:00;102283.13;;;9.13;100.00
48968;BME280;46511;53.148;8.204;2024-01-25T00:31:32;102284.09;;;9.11;100.00
48968;BME280;46511;53.148;8.204;2024-01-25T00:34:03;102295.13;;;9.27;100.00
48968;BME280;46511;53.148;8.204;2024-01-25T00:36:35;102287.81;;;9.36;100.00
48968;BME280;46511;53.148;8.204;2024-01-25T00:39:06;102294.22;;;9.28;100.00
48968;BME280;46511;53.148;8.204;2024-01-25T00:41:39;102290.94;;;9.18;100.00
48968;BME280;46511;53.148;8.204;2024-01-25T00:44:11;102306.31;;;9.05;100.00
48968;BME280;46511;53.148;8.204;2024-01-25T00:46:43;102307.22;;;9.37;100.00
48968;BME280;46511;53.148;8.204;2024-01-25T00:49:17;102296.78;;;9.32;100.00
48968;BME280;46511;53.148;8.204;2024-01-25T00:51:49;102294.31;;;9.57;100.00
48968;BME280;46511;53.148;8.204;2024-01-25T00:54:26;102283.19;;;9.12;100.00
48968;BME280;46511;53.148;8.204;2024-01-25T00:56:58;102286.47;;;8.87;100.00
48968;BME280;46511;53.148;8.204;2024-01-25T00:59:29;102285.59;;;9.21;100.00
48968;BME280;46511;53.148;8.204;2024-01-25T01:02:01;102286.16;;;9.32;100.00
48968;BME280;46511;53.148;8.204;2024-01-25T01:04:36;102293.78;;;9.12;100.00
48968;BME280;46511;53.148;8.204;2024-01-25T01:07:08;102288.19;;;8.88;100.00
48968;BME280;46511;53.148;8.204;2024-01-25T01:09:40;102290.84;;;8.88;100.00
48968;BME280;46511;53.148;8.204;2024-01-25T01:12:12;102282.13;;;8.85;100.00
48968;BME280;46511;53.148;8.204;2024-01-25T01:14:43;102299.16;;;9.09;100.00
48968;BME280;46511;53.148;8.204;2024-01-25T01:17:14;102310.84;;;9.02;100.00
48968;BME280;46511;53.148;8.204;2024-01-25T01:19:46;102304.97;;;9.23;100.00
48968;BME280;46511;53.148;8.204;2024-01-25T01:22:17;102296.72;;;9.34;100.00
48968;BME280;46511;53.148;8.204;2024-01-25T01:24:49;102298.53;;;8.99;100.00
48968;BME280;46511;53.148;8.204;2024-01-25T01:27:20;102301.97;;;9.03;100.00
48968;BME280;46511;53.148;8.204;2024-01-25T01:29:52;102305.59;;;8.99;100.00
48968;BME280;46511;53.148;8.204;2024-01-25T01:32:23;102304.53;;;9.06;100.00
48968;BME280;46511;53.148;8.204;2024-01-25T01:34:50;102308.69;;;9.16;100.00
48968;BME280;46511;53.148;8.204;2024-01-25T01:37:21;102309.25;;;8.95;100.00
48968;BME280;46511;53.148;8.204;2024-01-25T01:39:52;102301.50;;;8.87;100.00
48968;BME280;46511;53.148;8.204;2024-01-25T01:42:27;102310.75;;;9.05;100.00
48968;BME280;46511;53.148;8.204;2024-01-25T01:44:59;102320.00;;;8.88;100.00
48968;BME280;46511;53.148;8.204;2024-01-25T01:47:30;102327.84;;;8.93;100.00
48968;BME280;46511;53.148;8.204;2024-01-25T01:50:02;102324.84;;;8.73;100.00
48968;BME280;46511;53.148;8.204;2024-01-25T01:52:33;102335.34;;;8.76;100.00
48968;BME280;46511;53.148;8.204;2024-01-25T01:54:59;102329.47;;;8.63;100.00
48968;BME280;46511;53.148;8.204;2024-01-25T01:57:31;102321.38;;;8.69;100.00
48968;BME280;46511;53.148;8.204;2024-01-25T01:59:58;102329.41;;;8.66;100.00
48968;BME280;46511;53.148;8.204;2024-01-25T02:02:26;102340.38;;;8.86;100.00
48968;BME280;46511;53.148;8.204;2024-01-25T02:04:58;102351.94;;;8.84;100.00
48968;BME280;46511;53.148;8.204;2024-01-25T02:07:26;102358.53;;;8.66;100.00
48968;BME280;46511;53.148;8.204;2024-01-25T02:09:53;102359.28;;;8.71;100.00
48968;BME280;46511;53.148;8.204;2024-01-25T02:12:19;102370.19;;;8.59;100.00
48968;BME280;46511;53.148;8.204;2024-01-25T02:14:46;102374.91;;;8.83;100.00
48968;BME280;46511;53.148;8.204;2024-01-25T02:17:12;102369.38;;;8.93;100.00
48968;BME280;46511;53.148;8.204;2024-01-25T02:19:39;102378.25;;;8.92;100.00
48968;BME280;46511;53.148;8.204;2024-01-25T02:22:05;102382.50;;;8.60;100.00
48968;BME280;46511;53.148;8.204;2024-01-25T02:24:32;102370.47;;;8.47;100.00
48968;BME280;46511;53.148;8.204;2024-01-25T02:26:59;102379.06;;;8.94;100.00
48968;BME280;46511;53.148;8.204;2024-01-25T02:29:25;102371.13;;;8.56;100.00
48968;BME280;46511;53.148;8.204;2024-01-25T02:31:52;102379.47;;;8.77;100.00
48968;BME280;46511;53.148;8.204;2024-01-25T02:34:18;102380.00;;;8.93;100.00
48968;BME280;46511;53.148;8.204;2024-01-25T02:36:49;102372.63;;;8.68;100.00
48968;BME280;46511;53.148;8.204;2024-01-25T02:39:16;102368.09;;;8.73;100.00
48968;BME280;46511;53.148;8.204;2024-01-25T02:41:43;102370.25;;;8.56;100.00
48968;BME280;46511;53.148;8.204;2024-01-25T02:44:15;102369.53;;;8.86;100.00
48968;BME280;46511;53.148;8.204;2024-01-25T02:46:41;102384.69;;;8.80;100.00
48968;BME280;46511;53.148;8.204;2024-01-25T02:49:10;102375.69;;;8.87;100.00
48968;BME280;46511;53.148;8.204;2024-01-25T02:51:37;102375.63;;;8.53;100.00
48968;BME280;46511;53.148;8.204;2024-01-25T02:54:04;102376.28;;;8.63;100.00
48968;BME280;46511;53.148;8.204;2024-01-25T02:56:30;102386.88;;;8.63;100.00
48968;BME280;46511;53.148;8.204;2024-01-25T02:59:01;102382.69;;;8.52;100.00
48968;BME280;46511;53.148;8.204;2024-01-25T03:01:28;102395.41;;;8.75;100.00
48968;BME280;46511;53.148;8.204;2024-01-25T03:03:54;102393.41;;;8.48;100.00
48968;BME280;46511;53.148;8.204;2024-01-25T03:06:21;102399.81;;;8.76;100.00
48968;BME280;46511;53.148;8.204;2024-01-25T03:08:48;102394.81;;;8.64;100.00
48968;BME280;46511;53.148;8.204;2024-01-25T03:11:14;102391.56;;;8.50;100.00
48968;BME280;46511;53.148;8.204;2024-01-25T03:13:43;102395.06;;;8.52;100.00
48968;BME280;46511;53.148;8.204;2024-01-25T03:16:10;102402.47;;;8.76;100.00
48968;BME280;46511;53.148;8.204;2024-01-25T03:18:36;102391.28;;;8.62;100.00
48968;BME280;46511;53.148;8.204;2024-01-25T03:21:08;102403.88;;;8.54;100.00
48968;BME280;46511;53.148;8.204;2024-01-25T03:23:34;102401.97;;;8.96;100.00
48968;BME280;46511;53.148;8.204;2024-01-25T03:26:01;102396.81;;;8.53;100.00
48968;BME280;46511;53.148;8.204;2024-01-25T03:28:28;102394.97;;;8.94;100.00
48968;BME280;46511;53.148;8.204;2024-01-25T03:30:56;102400.75;;;9.11;100.00
48968;BME280;46511;53.148;8.204;2024-01-25T03:33:22;102398.06;;;9.12;100.00
48968;BME280;46511;53.148;8.204;2024-01-25T03:35:49;102397.25;;;8.73;100.00
48968;BME280;46511;53.148;8.204;2024-01-25T03:38:16;102409.56;;;8.74;100.00
48968;BME280;46511;53.148;8.204;2024-01-25T03:40:43;102411.22;;;8.78;100.00
48968;BME280;46511;53.148;8.204;2024-01-25T03:43:10;102416.31;;;8.87;100.00
48968;BME280;46511;53.148;8.204;2024-01-25T03:45:37;102422.53;;;8.86;100.00
48968;BME280;46511;53.148;8.204;2024-01-25T03:48:03;102423.47;;;9.21;100.00
48968;BME280;46511;53.148;8.204;2024-01-25T03:50:30;102428.59;;;8.92;100.00
48968;BME280;46511;53.148;8.204;2024-01-25T03:52:57;102428.34;;;9.02;100.00
48968;BME280;46511;53.148;8.204;2024-01-25T03:55:24;102429.44;;;8.94;100.00
48968;BME280;46511;53.148;8.204;2024-01-25T03:57:50;102440.03;;;8.94;100.00
48968;BME280;46511;53.148;8.204;2024-01-25T04:00:16;102450.44;;;9.03;100.00
48968;BME280;46511;53.148;8.204;2024-01-25T04:02:43;102448.91;;;8.93;100.00
48968;BME280;46511;53.148;8.204;2024-01-25T04:05:10;102459.41;;;8.96;100.00
48968;BME280;46511;53.148;8.204;2024-01-25T04:07:42;102463.16;;;9.24;100.00
48968;BME280;46511;53.148;8.204;2024-01-25T04:10:08;102471.25;;;9.20;100.00
48968;BME280;46511;53.148;8.204;2024-01-25T04:12:40;102471.84;;;8.94;100.00
48968;BME280;46511;53.148;8.204;2024-01-25T04:15:07;102481.25;;;9.07;100.00
48968;BME280;46511;53.148;8.204;2024-01-25T04:17:38;102480.03;;;8.83;100.00
48968;BME280;46511;53.148;8.204;2024-01-25T04:20:05;102467.97;;;9.44;100.00
48968;BME280;46511;53.148;8.204;2024-01-25T04:22:32;102469.72;;;9.08;100.00
48968;BME280;46511;53.148;8.204;2024-01-25T04:24:59;102461.91;;;8.65;100.00
48968;BME280;46511;53.148;8.204;2024-01-25T04:27:26;102475.06;;;8.68;100.00
48968;BME280;46511;53.148;8.204;2024-01-25T04:29:52;102464.84;;;8.90;100.00
48968;BME280;46511;53.148;8.204;2024-01-25T04:32:19;102470.59;;;9.10;100.00
48968;BME280;46511;53.148;8.204;2024-01-25T04:34:46;102476.97;;;9.00;100.00
48968;BME280;46511;53.148;8.204;2024-01-25T04:37:14;102477.75;;;8.66;100.00
48968;BME280;46511;53.148;8.204;2024-01-25T04:39:40;102479.63;;;9.00;100.00
48968;BME280;46511;53.148;8.204;2024-01-25T04:42:07;102476.84;;;9.06;100.00
48968;BME280;46511;53.148;8.204;2024-01-25T04:44:34;102471.41;;;9.12;100.00
48968;BME280;46511;53.148;8.204;2024-01-25T04:47:00;102478.84;;;8.96;100.00
48968;BME280;46511;53.148;8.204;2024-01-25T04:49:27;102488.22;;;8.72;100.00
48968;BME280;46511;53.148;8.204;2024-01-25T04:51:53;102495.66;;;8.55;100.00
48968;BME280;46511;53.148;8.204;2024-01-25T04:54:20;102499.91;;;8.62;100.00
48968;BME280;46511;53.148;8.204;2024-01-25T04:56:47;102497.41;;;8.56;100.00
48968;BME280;46511;53.148;8.204;2024-01-25T04:59:14;102497.66;;;8.44;100.00
48968;BME280;46511;53.148;8.204;2024-01-25T05:01:41;102486.06;;;8.49;100.00
48968;BME280;46511;53.148;8.204;2024-01-25T05:04:08;102496.53;;;8.55;100.00
48968;BME280;46511;53.148;8.204;2024-01-25T05:06:34;102503.63;;;8.07;100.00
48968;BME280;46511;53.148;8.204;2024-01-25T05:09:01;102497.84;;;8.31;100.00
48968;BME280;46511;53.148;8.204;2024-01-25T05:11:28;102494.28;;;8.36;100.00
48968;BME280;46511;53.148;8.204;2024-01-25T05:13:54;102497.69;;;8.41;100.00
48968;BME280;46511;53.148;8.204;2024-01-25T05:16:21;102487.47;;;8.66;100.00
48968;BME280;46511;53.148;8.204;2024-01-25T05:18:48;102500.31;;;8.42;100.00
48968;BME280;46511;53.148;8.204;2024-01-25T05:21:14;102498.84;;;8.27;100.00
48968;BME280;46511;53.148;8.204;2024-01-25T05:23:43;102498.19;;;8.16;100.00
48968;BME280;46511;53.148;8.204;2024-01-25T05:26:09;102493.25;;;8.44;100.00
48968;BME280;46511;53.148;8.204;2024-01-25T05:28:36;102500.41;;;8.79;100.00
48968;BME280;46511;53.148;8.204;2024-01-25T05:31:03;102492.78;;;8.66;100.00
48968;BME280;46511;53.148;8.204;2024-01-25T05:33:34;102493.38;;;8.37;100.00
48968;BME280;46511;53.148;8.204;2024-01-25T05:36:01;102503.56;;;8.56;100.00
48968;BME280;46511;53.148;8.204;2024-01-25T05:38:27;102498.28;;;8.56;100.00
48968;BME280;46511;53.148;8.204;2024-01-25T05:40:54;102509.81;;;8.94;100.00
48968;BME280;46511;53.148;8.204;2024-01-25T05:43:20;102512.13;;;8.69;100.00
48968;BME280;46511;53.148;8.204;2024-01-25T05:45:47;102523.16;;;8.90;100.00
48968;BME280;46511;53.148;8.204;2024-01-25T05:48:13;102517.31;;;9.14;100.00
48968;BME280;46511;53.148;8.204;2024-01-25T05:50:40;102518.06;;;8.80;100.00
48968;BME280;46511;53.148;8.204;2024-01-25T05:53:06;102518.06;;;8.80;100.00
48968;BME280;46511;53.148;8.204;2024-01-25T05:55:33;102516.28;;;8.82;100.00
48968;BME280;46511;53.148;8.204;2024-01-25T05:58:04;102497.53;;;8.90;100.00
48968;BME280;46511;53.148;8.204;2024-01-25T06:00:31;102506.63;;;8.37;100.00
48968;BME280;46511;53.148;8.204;2024-01-25T06:02:58;102503.84;;;8.44;100.00
48968;BME280;46511;53.148;8.204;2024-01-25T06:05:24;102493.06;;;8.07;100.00
48968;BME280;46511;53.148;8.204;2024-01-25T06:07:51;102506.25;;;8.55;100.00
48968;BME280;46511;53.148;8.204;2024-01-25T06:10:18;102507.16;;;8.52;100.00
48968;BME280;46511;53.148;8.204;2024-01-25T06:12:44;102502.91;;;7.99;100.00
48968;BME280;46511;53.148;8.204;2024-01-25T06:15:11;102506.97;;;8.62;100.00
48968;BME280;46511;53.148;8.204;2024-01-25T06:17:38;102518.81;;;8.45;100.00
48968;BME280;46511;53.148;8.204;2024-01-25T06:20:04;102515.41;;;8.39;100.00
48968;BME280;46511;53.148;8.204;2024-01-25T06:22:32;102532.75;;;8.55;100.00
48968;BME280;46511;53.148;8.204;2024-01-25T06:24:59;102530.78;;;8.65;100.00
48968;BME280;46511;53.148;8.204;2024-01-25T06:27:26;102538.41;;;8.34;100.00
48968;BME280;46511;53.148;8.204;2024-01-25T06:29:52;102548.81;;;8.46;100.00
48968;BME280;46511;53.148;8.204;2024-01-25T06:32:24;102554.50;;;8.69;100.00
48968;BME280;46511;53.148;8.204;2024-01-25T06:34:55;102560.72;;;8.68;100.00
48968;BME280;46511;53.148;8.204;2024-01-25T06:37:26;102568.94;;;8.98;100.00
48968;BME280;46511;53.148;8.204;2024-01-25T06:39:57;102559.72;;;8.27;100.00
48968;BME280;46511;53.148;8.204;2024-01-25T06:42:29;102564.81;;;8.40;100.00
48968;BME280;46511;53.148;8.204;2024-01-25T06:45:04;102560.97;;;8.56;100.00
48968;BME280;46511;53.148;8.204;2024-01-25T06:47:36;102567.41;;;8.44;100.00
48968;BME280;46511;53.148;8.204;2024-01-25T06:50:07;102567.75;;;8.69;100.00
48968;BME280;46511;53.148;8.204;2024-01-25T06:52:34;102566.44;;;8.47;100.00
48968;BME280;46511;53.148;8.204;2024-01-25T06:55:06;102580.16;;;8.67;100.00
48968;BME280;46511;53.148;8.204;2024-01-25T06:57:32;102581.38;;;8.51;100.00
48968;BME280;46511;53.148;8.204;2024-01-25T06:59:58;102595.88;;;8.76;100.00
48968;BME280;46511;53.148;8.204;2024-01-25T07:02:26;102596.06;;;8.67;100.00
48968;BME280;46511;53.148;8.204;2024-01-25T07:04:57;102599.00;;;8.97;100.00
48968;BME280;46511;53.148;8.204;2024-01-25T07:07:28;102602.47;;;8.99;100.00
48968;BME280;46511;53.148;8.204;2024-01-25T07:10:07;102596.38;;;8.95;100.00
48968;BME280;46511;53.148;8.204;2024-01-25T07:12:33;102602.28;;;8.66;100.00
48968;BME280;46511;53.148;8.204;2024-01-25T07:14:59;102607.38;;;8.75;100.00
48968;BME280;46511;53.148;8.204;2024-01-25T07:17:31;102611.97;;;8.67;100.00
48968;BME280;46511;53.148;8.204;2024-01-25T07:20:02;102608.50;;;8.62;100.00
48968;BME280;46511;53.148;8.204;2024-01-25T07:22:34;102612.50;;;8.84;100.00
48968;BME280;46511;53.148;8.204;2024-01-25T07:25:06;102620.31;;;8.91;100.00
48968;BME280;46511;53.148;8.204;2024-01-25T07:27:37;102618.38;;;8.99;100.00
48968;BME280;46511;53.148;8.204;2024-01-25T07:30:09;102620.09;;;9.03;100.00
48968;BME280;46511;53.148;8.204;2024-01-25T07:32:36;102624.56;;;8.56;100.00
48968;BME280;46511;53.148;8.204;2024-01-25T07:35:10;102624.06;;;8.80;100.00
48968;BME280;46511;53.148;8.204;2024-01-25T07:37:42;102630.72;;;9.00;100.00
48968;BME280;46511;53.148;8.204;2024-01-25T07:40:13;102633.97;;;8.72;100.00
48968;BME280;46511;53.148;8.204;2024-01-25T07:42:45;102622.72;;;8.58;100.00
48968;BME280;46511;53.148;8.204;2024-01-25T07:45:18;102628.41;;;8.84;100.00
48968;BME280;46511;53.148;8.204;2024-01-25T07:47:50;102626.22;;;8.60;100.00
48968;BME280;46511;53.148;8.204;2024-01-25T07:50:16;102639.31;;;8.68;100.00
48968;BME280;46511;53.148;8.204;2024-01-25T07:52:48;102625.88;;;8.78;100.00
48968;BME280;46511;53.148;8.204;2024-01-25T07:55:20;102638.38;;;9.15;100.00
48968;BME280;46511;53.148;8.204;2024-01-25T07:57:52;102638.75;;;8.97;100.00
48968;BME280;46511;53.148;8.204;2024-01-25T08:00:23;102637.19;;;9.30;100.00
48968;BME280;46511;53.148;8.204;2024-01-25T08:02:49;102644.63;;;9.53;100.00
48968;BME280;46511;53.148;8.204;2024-01-25T08:05:21;102642.56;;;9.25;100.00
48968;BME280;46511;53.148;8.204;2024-01-25T08:07:52;102643.78;;;9.51;100.00
48968;BME280;46511;53.148;8.204;2024-01-25T08:10:23;102656.00;;;8.74;100.00
48968;BME280;46511;53.148;8.204;2024-01-25T08:12:55;102657.63;;;8.81;100.00
48968;BME280;46511;53.148;8.204;2024-01-25T08:15:26;102644.22;;;9.31;100.00
48968;BME280;46511;53.148;8.204;2024-01-25T08:17:57;102648.03;;;9.19;100.00
48968;BME280;46511;53.148;8.204;2024-01-25T08:20:29;102639.19;;;9.59;100.00
48968;BME280;46511;53.148;8.204;2024-01-25T08:23:00;102641.13;;;9.09;100.00
48968;BME280;46511;53.148;8.204;2024-01-25T08:25:31;102637.22;;;9.27;100.00
48968;BME280;46511;53.148;8.204;2024-01-25T08:28:03;102628.41;;;9.26;100.00
48968;BME280;46511;53.148;8.204;2024-01-25T08:30:34;102630.06;;;9.70;100.00
48968;BME280;46511;53.148;8.204;2024-01-25T08:33:06;102624.44;;;9.45;100.00
48968;BME280;46511;53.148;8.204;2024-01-25T08:35:37;102633.06;;;9.92;100.00
48968;BME280;46511;53.148;8.204;2024-01-25T08:38:08;102652.63;;;9.88;100.00
48968;BME280;46511;53.148;8.204;2024-01-25T08:40:40;102661.78;;;9.36;100.00
48968;BME280;46511;53.148;8.204;2024-01-25T08:43:11;102659.78;;;9.48;100.00
48968;BME280;46511;53.148;8.204;2024-01-25T08:45:42;102660.38;;;9.20;100.00
48968;BME280;46511;53.148;8.204;2024-01-25T08:48:14;102663.78;;;9.25;100.00
48968;BME280;46511;53.148;8.204;2024-01-25T08:50:46;102664.72;;;9.63;100.00
48968;BME280;46511;53.148;8.204;2024-01-25T08:53:17;102648.88;;;9.60;100.00
48968;BME280;46511;53.148;8.204;2024-01-25T08:55:48;102647.47;;;9.43;100.00
48968;BME280;46511;53.148;8.204;2024-01-25T08:58:20;102634.78;;;9.58;100.00
48968;BME280;46511;53.148;8.204;2024-01-25T09:00:55;102647.19;;;9.56;100.00
48968;BME280;46511;53.148;8.204;2024-01-25T09:03:26;102651.63;;;9.15;100.00
48968;BME280;46511;53.148;8.204;2024-01-25T09:05:53;102665.91;;;9.08;100.00
48968;BME280;46511;53.148;8.204;2024-01-25T09:08:24;102663.84;;;9.22;100.00
48968;BME280;46511;53.148;8.204;2024-01-25T09:10:55;102668.56;;;9.50;100.00
48968;BME280;46511;53.148;8.204;2024-01-25T09:13:22;102667.34;;;9.24;100.00
48968;BME280;46511;53.148;8.204;2024-01-25T09:15:53;102676.22;;;9.63;100.00
48968;BME280;46511;53.148;8.204;2024-01-25T09:18:25;102678.53;;;9.79;100.00
48968;BME280;46511;53.148;8.204;2024-01-25T09:20:56;102678.00;;;9.63;100.00
48968;BME280;46511;53.148;8.204;2024-01-25T09:23:22;102676.94;;;9.70;100.00
48968;BME280;46511;53.148;8.204;2024-01-25T09:25:54;102681.44;;;9.68;100.00
48968;BME280;46511;53.148;8.204;2024-01-25T09:28:25;102680.09;;;9.87;100.00
48968;BME280;46511;53.148;8.204;2024-01-25T09:30:56;102689.56;;;10.36;100.00
48968;BME280;46511;53.148;8.204;2024-01-25T09:33:28;102689.66;;;10.32;100.00
48968;BME280;46511;53.148;8.204;2024-01-25T09:36:00;102689.50;;;10.72;100.00
48968;BME280;46511;53.148;8.204;2024-01-25T09:38:32;102681.97;;;10.19;100.00
48968;BME280;46511;53.148;8.204;2024-01-25T09:41:04;102683.38;;;9.98;100.00
48968;BME280;46511;53.148;8.204;2024-01-25T09:43:36;102694.22;;;10.61;100.00
48968;BME280;46511;53.148;8.204;2024-01-25T09:46:07;102688.09;;;10.91;100.00
48968;BME280;46511;53.148;8.204;2024-01-25T09:48:44;102688.75;;;10.67;100.00
48968;BME280;46511;53.148;8.204;2024-01-25T09:51:17;102697.03;;;10.19;100.00
48968;BME280;46511;53.148;8.204;2024-01-25T09:53:43;102691.44;;;10.31;100.00
48968;BME280;46511;53.148;8.204;2024-01-25T09:56:19;102692.03;;;9.68;100.00
48968;BME280;46511;53.148;8.204;2024-01-25T09:58:52;102700.47;;;9.87;100.00
48968;BME280;46511;53.148;8.204;2024-01-25T10:01:18;102706.97;;;10.11;100.00
48968;BME280;46511;53.148;8.204;2024-01-25T10:03:45;102703.22;;;9.82;100.00
48968;BME280;46511;53.148;8.204;2024-01-25T10:06:17;102710.66;;;9.65;100.00
48968;BME280;46511;53.148;8.204;2024-01-25T10:08:44;102717.63;;;9.70;100.00
48968;BME280;46511;53.148;8.204;2024-01-25T10:11:16;102711.53;;;10.06;100.00
48968;BME280;46511;53.148;8.204;2024-01-25T10:13:48;102713.56;;;9.54;100.00
48968;BME280;46511;53.148;8.204;2024-01-25T10:16:22;102706.97;;;9.72;100.00
48968;BME280;46511;53.148;8.204;2024-01-25T10:18:53;102706.03;;;10.49;100.00
48968;BME280;46511;53.148;8.204;2024-01-25T10:21:24;102701.41;;;10.90;100.00
48968;BME280;46511;53.148;8.204;2024-01-25T10:23:56;102711.00;;;10.95;100.00
48968;BME280;46511;53.148;8.204;2024-01-25T10:26:29;102706.53;;;10.65;100.00
48968;BME280;46511;53.148;8.204;2024-01-25T10:29:00;102713.88;;;10.18;100.00
48968;BME280;46511;53.148;8.204;2024-01-25T10:31:32;102725.97;;;10.31;100.00
48968;BME280;46511;53.148;8.204;2024-01-25T10:34:10;102725.84;;;11.04;100.00
48968;BME280;46511;53.148;8.204;2024-01-25T10:36:44;102728.72;;;10.96;100.00
48968;BME280;46511;53.148;8.204;2024-01-25T10:39:15;102727.78;;;10.29;100.00
48968;BME280;46511;53.148;8.204;2024-01-25T10:41:44;102716.94;;;10.38;100.00
48968;BME280;46511;53.148;8.204;2024-01-25T10:44:16;102725.09;;;9.92;100.00
48968;BME280;46511;53.148;8.204;2024-01-25T10:46:50;102715.84;;;10.10;100.00
48968;BME280;46511;53.148;8.204;2024-01-25T10:49:21;102719.47;;;10.44;100.00
48968;BME280;46511;53.148;8.204;2024-01-25T10:51:53;102712.66;;;10.67;100.00
48968;BME280;46511;53.148;8.204;2024-01-25T10:54:24;102719.38;;;10.47;100.00
48968;BME280;46511;53.148;8.204;2024-01-25T10:56:56;102717.88;;;10.71;100.00
48968;BME280;46511;53.148;8.204;2024-01-25T10:59:24;102717.66;;;10.08;100.00
48968;BME280;46511;53.148;8.204;2024-01-25T11:01:56;102718.13;;;10.62;100.00
48968;BME280;46511;53.148;8.204;2024-01-25T11:04:29;102704.25;;;10.83;100.00
48968;BME280;46511;53.148;8.204;2024-01-25T11:07:03;102708.41;;;10.94;100.00
48968;BME280;46511;53.148;8.204;2024-01-25T11:09:33;102706.75;;;10.88;100.00
48968;BME280;46511;53.148;8.204;2024-01-25T11:12:01;102702.28;;;11.52;100.00
48968;BME280;46511;53.148;8.204;2024-01-25T11:14:27;102691.69;;;11.79;100.00
48968;BME280;46511;53.148;8.204;2024-01-25T11:16:55;102695.16;;;12.10;100.00
48968;BME280;46511;53.148;8.204;2024-01-25T11:19:22;102685.72;;;12.26;100.00
48968;BME280;46511;53.148;8.204;2024-01-25T11:21:49;102689.41;;;11.96;100.00
48968;BME280;46511;53.148;8.204;2024-01-25T11:24:24;102680.53;;;12.23;100.00
48968;BME280;46511;53.148;8.204;2024-01-25T11:26:55;102678.97;;;12.43;100.00
48968;BME280;46511;53.148;8.204;2024-01-25T11:29:24;102684.38;;;12.40;100.00
48968;BME280;46511;53.148;8.204;2024-01-25T11:31:53;102692.69;;;11.15;100.00
48968;BME280;46511;53.148;8.204;2024-01-25T11:34:20;102689.75;;;10.95;100.00
48968;BME280;46511;53.148;8.204;2024-01-25T11:36:48;102677.00;;;11.37;100.00
48968;BME280;46511;53.148;8.204;2024-01-25T11:39:15;102681.50;;;12.72;100.00
48968;BME280;46511;53.148;8.204;2024-01-25T11:41:43;102678.97;;;12.93;100.00
48968;BME280;46511;53.148;8.204;2024-01-25T11:44:11;102670.66;;;12.25;100.00
48968;BME280;46511;53.148;8.204;2024-01-25T11:46:38;102661.75;;;13.71;100.00
48968;BME280;46511;53.148;8.204;2024-01-25T11:49:05;102657.91;;;13.57;100.00
48968;BME280;46511;53.148;8.204;2024-01-25T11:51:33;102653.16;;;13.41;100.00
48968;BME280;46511;53.148;8.204;2024-01-25T11:54:00;102658.84;;;13.56;100.00
48968;BME280;46511;53.148;8.204;2024-01-25T11:56:28;102650.47;;;13.65;100.00
48968;BME280;46511;53.148;8.204;2024-01-25T11:58:58;102637.63;;;13.73;100.00
48968;BME280;46511;53.148;8.204;2024-01-25T12:01:27;102639.50;;;13.49;100.00
48968;BME280;46511;53.148;8.204;2024-01-25T12:03:55;102637.63;;;13.04;100.00
48968;BME280;46511;53.148;8.204;2024-01-25T12:06:23;102646.94;;;12.44;100.00
48968;BME280;46511;53.148;8.204;2024-01-25T12:08:50;102648.50;;;15.70;100.00
48968;BME280;46511;53.148;8.204;2024-01-25T12:11:17;102649.50;;;15.49;100.00
48968;BME280;46511;53.148;8.204;2024-01-25T12:13:45;102654.72;;;14.13;100.00
48968;BME280;46511;53.148;8.204;2024-01-25T12:16:12;102656.50;;;13.00;100.00
48968;BME280;46511;53.148;8.204;2024-01-25T12:18:40;102656.41;;;11.72;100.00
48968;BME280;46511;53.148;8.204;2024-01-25T12:21:08;102662.97;;;11.60;100.00
48968;BME280;46511;53.148;8.204;2024-01-25T12:23:35;102662.13;;;11.60;100.00
48968;BME280;46511;53.148;8.204;2024-01-25T12:26:06;102657.22;;;12.02;100.00
48968;BME280;46511;53.148;8.204;2024-01-25T12:28:40;102661.63;;;12.03;100.00
48968;BME280;46511;53.148;8.204;2024-01-25T12:31:11;102663.69;;;12.48;100.00
48968;BME280;46511;53.148;8.204;2024-01-25T12:33:43;102665.75;;;13.38;100.00
48968;BME280;46511;53.148;8.204;2024-01-25T12:36:09;102659.88;;;14.60;100.00
48968;BME280;46511;53.148;8.204;2024-01-25T12:38:41;102662.59;;;14.16;100.00
48968;BME280;46511;53.148;8.204;2024-01-25T12:41:12;102659.13;;;14.14;100.00
48968;BME280;46511;53.148;8.204;2024-01-25T12:43:44;102650.31;;;13.90;100.00
48968;BME280;46511;53.148;8.204;2024-01-25T12:46:15;102643.31;;;13.65;100.00
48968;BME280;46511;53.148;8.204;2024-01-25T12:48:46;102645.28;;;14.46;100.00
48968;BME280;46511;53.148;8.204;2024-01-25T12:51:17;102647.91;;;17.84;85.77
48968;BME280;46511;53.148;8.204;2024-01-25T12:53:49;102645.69;;;19.66;66.54
48968;BME280;46511;53.148;8.204;2024-01-25T12:56:20;102639.00;;;19.17;64.73
48968;BME280;46511;53.148;8.204;2024-01-25T12:58:52;102636.16;;;19.88;59.90